Time;durP1;ratioP1;P1;durP2;ratioP2;P2;SDS_P1;SDS_P2;PMS_P1;PMS_P2;Temp;Humidity;BMP_temperature;BMP_pressure;BME280_temperature;BME280_humidity;BME280_pressure;Samples;Min_cycle;Max_cycle;Signal;HPM_P1;HPM_P2
2022/10/09 00:01:49;;;;;;;;;;;;;;;21.81;42.88;99603.88;4438622;32;34177;-83
2022/10/09 00:04:16;;;;;;;;;;;;;;;21.69;42.98;99614.78;4441943;32;33741;-81
2022/10/09 00:06:43;;;;;;;;;;;;;;;21.39;43.95;99613.75;4449021;32;33678;-83
2022/10/09 00:09:11;;;;;;;;;;;;;;;21.15;44.66;99607.28;4447723;32;33817;-86
2022/10/09 00:11:39;;;;;;;;;;;;;;;21.23;44.45;99600.03;4452784;32;33414;-85
2022/10/09 00:14:06;;;;;;;;;;;;;;;21.17;44.73;99608.09;4452316;32;34163;-83
2022/10/09 00:16:33;;;;;;;;;;;;;;;21.23;44.58;99607.09;4452221;32;34136;-83
2022/10/09 00:19:00;;;;;;;;;;;;;;;21.65;43.49;99607.84;4452778;32;33963;-84
2022/10/09 00:21:29;;;;;;;;;;;;;;;21.46;43.70;99603.94;4448287;32;32776;-83
2022/10/09 00:23:57;;;;;;;;;;;;;;;21.46;43.78;99598.66;4452163;32;34924;-81
2022/10/09 00:26:25;;;;;;;;;;;;;;;21.09;44.98;99591.59;4451818;32;34372;-83
2022/10/09 00:28:52;;;;;;;;;;;;;;;21.16;44.56;99593.19;4452388;32;34065;-84
2022/10/09 00:31:19;;;;;;;;;;;;;;;20.96;45.41;99590.16;4452498;32;34041;-84
2022/10/09 00:33:47;;;;;;;;;;;;;;;21.04;45.03;99591.69;4450084;32;34422;-83
2022/10/09 00:36:18;;;;;;;;;;;;;;;20.94;45.47;99590.16;4452257;32;34325;-82
2022/10/09 00:38:45;;;;;;;;;;;;;;;21.03;45.29;99586.47;4452321;32;34274;-83
2022/10/09 00:41:14;;;;;;;;;;;;;;;20.42;47.00;99581.63;4452451;32;34292;-83
2022/10/09 00:43:41;;;;;;;;;;;;;;;20.82;46.02;99580.78;4451468;32;33704;-86
2022/10/09 00:46:19;;;;;;;;;;;;;;;20.77;46.20;99577.38;4452343;32;35124;-82
2022/10/09 00:48:47;;;;;;;;;;;;;;;20.22;47.48;99573.22;4451272;32;34033;-83
2022/10/09 00:51:14;;;;;;;;;;;;;;;19.51;49.69;99578.03;4452380;32;33107;-83
2022/10/09 00:53:41;;;;;;;;;;;;;;;19.66;49.15;99573.44;4451587;32;34252;-83
2022/10/09 00:56:08;;;;;;;;;;;;;;;19.42;49.43;99568.53;4450994;32;35195;-82
2022/10/09 00:58:36;;;;;;;;;;;;;;;19.67;49.55;99574.28;4452199;32;33963;-81
2022/10/09 01:01:03;;;;;;;;;;;;;;;19.02;51.24;99568.31;4452211;32;33566;-83
2022/10/09 01:03:30;;;;;;;;;;;;;;;19.25;50.81;99573.22;4451258;32;34083;-83
2022/10/09 01:06:15;;;;;;;;;;;;;;;18.68;52.39;99569.63;4449167;32;35148;-82
2022/10/09 01:08:51;;;;;;;;;;;;;;;19.32;50.92;99569.56;4461223;32;34827;-83
2022/10/09 01:11:27;;;;;;;;;;;;;;;19.37;50.69;99568.63;4461427;32;33207;-83
2022/10/09 01:13:57;;;;;;;;;;;;;;;18.98;51.84;99572.75;4451095;32;33938;-83
2022/10/09 01:16:25;;;;;;;;;;;;;;;19.25;51.21;99570.59;4451198;32;34892;-82
2022/10/09 01:18:56;;;;;;;;;;;;;;;19.43;50.59;99571.16;4450897;32;34784;-84
2022/10/09 01:21:24;;;;;;;;;;;;;;;19.54;50.40;99568.31;4450784;32;33082;-86
2022/10/09 01:24:01;;;;;;;;;;;;;;;19.97;49.29;99572.84;4450144;32;34048;-86
2022/10/09 01:26:31;;;;;;;;;;;;;;;19.91;49.26;99567.69;4450899;32;34184;-83
2022/10/09 01:29:00;;;;;;;;;;;;;;;19.54;50.47;99570.09;4450730;32;34805;-84
2022/10/09 01:31:27;;;;;;;;;;;;;;;19.80;49.83;99581.03;4446043;32;33584;-86
2022/10/09 01:33:55;;;;;;;;;;;;;;;19.42;50.52;99574.66;4463036;32;33644;-87
2022/10/09 01:36:22;;;;;;;;;;;;;;;19.90;49.23;99572.09;4450916;32;33678;-84
2022/10/09 01:38:49;;;;;;;;;;;;;;;20.40;48.17;99566.72;4450815;32;33340;-85
2022/10/09 01:41:16;;;;;;;;;;;;;;;20.57;47.76;99579.56;4450206;32;34115;-83
2022/10/09 01:43:44;;;;;;;;;;;;;;;20.46;47.84;99581.56;4450863;32;33715;-83
2022/10/09 01:46:27;;;;;;;;;;;;;;;20.37;48.31;99572.91;4452145;32;34167;-88
2022/10/09 01:48:57;;;;;;;;;;;;;;;19.79;49.88;99566.16;4451966;32;33696;-83
2022/10/09 01:51:24;;;;;;;;;;;;;;;19.82;49.98;99579.28;4450588;32;33145;-85
2022/10/09 01:53:52;;;;;;;;;;;;;;;19.80;50.10;99581.03;4451667;32;35145;-83
2022/10/09 01:56:20;;;;;;;;;;;;;;;19.94;49.53;99578.19;4451559;32;34409;-85
2022/10/09 01:58:51;;;;;;;;;;;;;;;20.70;47.56;99573.16;4450460;32;34897;-83
2022/10/09 02:01:20;;;;;;;;;;;;;;;20.18;49.13;99584.72;4440326;32;34026;-83
2022/10/09 02:03:48;;;;;;;;;;;;;;;20.06;49.46;99580.56;4447893;32;33910;-83
2022/10/09 02:06:16;;;;;;;;;;;;;;;20.03;49.57;99591.16;4450572;32;34377;-86
2022/10/09 02:08:43;;;;;;;;;;;;;;;20.30;48.85;99581.84;4451827;32;34148;-82
2022/10/09 02:11:13;;;;;;;;;;;;;;;19.79;50.45;99589.84;4450862;32;34096;-84
2022/10/09 02:13:40;;;;;;;;;;;;;;;19.34;51.78;99592.31;4450413;32;34182;-87
2022/10/09 02:16:28;;;;;;;;;;;;;;;19.15;52.69;99593.50;4451566;32;35142;-89
2022/10/09 02:19:03;;;;;;;;;;;;;;;19.49;51.82;99595.59;4449821;32;34695;-86
2022/10/09 02:21:42;;;;;;;;;;;;;;;18.67;54.49;99595.91;4450006;32;32926;-83
2022/10/09 02:24:14;;;;;;;;;;;;;;;19.11;53.45;99602.34;4450279;32;34191;-82
2022/10/09 02:26:41;;;;;;;;;;;;;;;18.85;54.46;99602.72;4450026;32;35323;-86
2022/10/09 02:29:08;;;;;;;;;;;;;;;18.85;54.24;99608.81;4451139;32;33922;-83
2022/10/09 02:31:36;;;;;;;;;;;;;;;18.98;54.04;99608.66;4450060;32;34109;-83
2022/10/09 02:34:04;;;;;;;;;;;;;;;18.96;54.02;99604.28;4450137;32;34933;-84
2022/10/09 02:36:32;;;;;;;;;;;;;;;18.50;55.67;99611.03;4451634;32;34939;-86
2022/10/09 02:38:59;;;;;;;;;;;;;;;17.67;58.12;99611.84;4450656;32;34405;-83
2022/10/09 02:41:26;;;;;;;;;;;;;;;17.94;57.64;99616.88;4451140;32;33726;-87
2022/10/09 02:43:54;;;;;;;;;;;;;;;17.07;60.90;99627.16;4451465;32;34552;-82
2022/10/09 02:46:21;;;;;;;;;;;;;;;17.71;58.68;99622.31;4451576;32;34301;-84
2022/10/09 02:48:48;;;;;;;;;;;;;;;18.26;57.17;99620.94;4453044;32;34863;-85
2022/10/09 02:51:16;;;;;;;;;;;;;;;18.27;57.20;99633.16;4452613;32;34134;-85
2022/10/09 02:53:44;;;;;;;;;;;;;;;18.46;56.39;99625.94;4453263;32;33742;-86
2022/10/09 02:56:11;;;;;;;;;;;;;;;19.11;54.60;99626.84;4452044;32;35090;-83
2022/10/09 02:58:38;;;;;;;;;;;;;;;17.78;58.44;99646.75;4453060;32;34491;-84
2022/10/09 03:01:06;;;;;;;;;;;;;;;18.40;56.97;99636.50;4452829;32;34072;-84
2022/10/09 03:03:33;;;;;;;;;;;;;;;18.63;56.48;99636.22;4453017;32;34992;-89
2022/10/09 03:06:04;;;;;;;;;;;;;;;18.12;57.97;99654.31;4452690;32;34391;-83
2022/10/09 03:08:32;;;;;;;;;;;;;;;18.51;57.25;99641.63;4453025;32;34373;-83
2022/10/09 03:10:59;;;;;;;;;;;;;;;17.71;59.73;99645.03;4452542;32;33416;-83
2022/10/09 03:13:26;;;;;;;;;;;;;;;18.60;57.24;99639.78;4452516;32;34336;-87
2022/10/09 03:15:53;;;;;;;;;;;;;;;18.22;57.91;99632.31;4453163;32;34518;-83
2022/10/09 03:18:21;;;;;;;;;;;;;;;17.97;59.46;99645.72;4452444;32;34213;-83
2022/10/09 03:20:48;;;;;;;;;;;;;;;18.16;59.12;99648.16;4453193;32;33377;-87
2022/10/09 03:23:15;;;;;;;;;;;;;;;18.26;58.78;99641.94;4452430;32;33844;-83
2022/10/09 03:25:42;;;;;;;;;;;;;;;18.18;58.77;99648.97;4452742;32;35090;-87
2022/10/09 03:28:09;;;;;;;;;;;;;;;18.92;56.94;99644.63;4452762;32;34864;-86
2022/10/09 03:30:39;;;;;;;;;;;;;;;18.04;59.03;99648.28;4453033;32;33822;-87
2022/10/09 03:33:06;;;;;;;;;;;;;;;18.20;58.98;99655.09;4452033;32;34092;-82
2022/10/09 03:35:33;;;;;;;;;;;;;;;18.57;57.43;99644.19;4440880;32;34411;-82
2022/10/09 03:38:01;;;;;;;;;;;;;;;18.97;55.99;99649.81;4440153;32;34028;-83
2022/10/09 03:40:28;;;;;;;;;;;;;;;18.55;57.54;99651.22;4452515;32;33246;-83
2022/10/09 03:42:55;;;;;;;;;;;;;;;18.52;57.57;99648.63;4452185;32;33828;-87
2022/10/09 03:45:22;;;;;;;;;;;;;;;19.17;55.50;99646.94;4452651;32;34173;-82
2022/10/09 03:47:49;;;;;;;;;;;;;;;19.79;53.73;99650.34;4452676;32;33911;-84
2022/10/09 03:50:16;;;;;;;;;;;;;;;19.46;54.42;99664.88;4452669;32;33411;-83
2022/10/09 03:52:44;;;;;;;;;;;;;;;19.09;55.60;99659.28;4452118;32;34409;-86
2022/10/09 03:55:11;;;;;;;;;;;;;;;18.33;58.21;99667.19;4452512;32;34370;-83
2022/10/09 03:57:39;;;;;;;;;;;;;;;18.62;57.69;99666.88;4452702;32;34211;-82
2022/10/09 04:00:07;;;;;;;;;;;;;;;18.95;56.40;99676.13;4452178;32;34225;-82
2022/10/09 04:02:34;;;;;;;;;;;;;;;18.99;56.87;99668.22;4449099;32;34045;-87
2022/10/09 04:05:01;;;;;;;;;;;;;;;18.57;58.18;99673.09;4437407;32;35068;-87
2022/10/09 04:07:28;;;;;;;;;;;;;;;18.89;57.01;99670.94;4437170;32;34350;-85
2022/10/09 04:09:56;;;;;;;;;;;;;;;17.70;61.22;99683.50;4438788;32;33388;-83
2022/10/09 04:12:23;;;;;;;;;;;;;;;17.62;61.19;99676.59;4452054;32;34820;-85
2022/10/09 04:14:50;;;;;;;;;;;;;;;18.21;59.64;99678.69;4452707;32;34339;-83
2022/10/09 04:17:17;;;;;;;;;;;;;;;18.81;57.80;99666.69;4452625;32;33990;-87
2022/10/09 04:19:45;;;;;;;;;;;;;;;18.66;58.13;99675.59;4452398;32;33232;-82
2022/10/09 04:22:12;;;;;;;;;;;;;;;18.71;57.96;99663.28;4451916;32;34154;-84
2022/10/09 04:24:39;;;;;;;;;;;;;;;18.29;59.07;99681.25;4451276;32;34162;-89
2022/10/09 04:27:06;;;;;;;;;;;;;;;18.53;58.38;99663.50;4452472;32;33913;-83
2022/10/09 04:29:33;;;;;;;;;;;;;;;18.45;58.63;99664.47;4451329;32;32974;-84
2022/10/09 04:32:01;;;;;;;;;;;;;;;18.93;57.06;99675.25;4452120;32;34967;-83
2022/10/09 04:34:28;;;;;;;;;;;;;;;18.85;57.13;99682.38;4436920;32;33956;-84
2022/10/09 04:36:55;;;;;;;;;;;;;;;18.41;58.79;99694.25;4437054;32;34999;-87
2022/10/09 04:39:23;;;;;;;;;;;;;;;17.93;60.55;99701.72;4439499;32;33131;-83
2022/10/09 04:41:50;;;;;;;;;;;;;;;18.30;59.33;99693.50;4452679;32;35142;-83
2022/10/09 04:44:17;;;;;;;;;;;;;;;18.31;59.42;99695.22;4447850;32;33938;-88
2022/10/09 04:46:44;;;;;;;;;;;;;;;18.05;60.22;99713.84;4451535;32;34359;-89
2022/10/09 04:49:12;;;;;;;;;;;;;;;18.71;57.96;99728.94;4452585;32;33491;-82
2022/10/09 04:51:39;;;;;;;;;;;;;;;17.84;61.23;99741.13;4452406;32;34092;-85
2022/10/09 04:54:07;;;;;;;;;;;;;;;18.49;59.14;99746.69;4440201;32;33830;-85
2022/10/09 04:56:35;;;;;;;;;;;;;;;19.25;56.55;99739.69;4463764;32;34420;-83
2022/10/09 04:59:02;;;;;;;;;;;;;;;19.13;56.83;99737.19;4452181;32;33204;-84
2022/10/09 05:01:29;;;;;;;;;;;;;;;18.80;57.86;99730.62;4452517;32;34892;-87
2022/10/09 05:04:04;;;;;;;;;;;;;;;19.07;57.09;99732.03;4451873;32;34528;-82
2022/10/09 05:06:31;;;;;;;;;;;;;;;18.66;58.29;99736.00;4451854;32;34331;-82
2022/10/09 05:08:58;;;;;;;;;;;;;;;18.52;58.75;99732.63;4451769;32;33180;-83
2022/10/09 05:11:25;;;;;;;;;;;;;;;18.20;59.43;99749.56;4452144;32;33898;-83
2022/10/09 05:13:53;;;;;;;;;;;;;;;17.84;60.64;99738.53;4451599;32;34529;-81
2022/10/09 05:16:23;;;;;;;;;;;;;;;18.60;58.78;99746.56;4451685;32;34535;-85
2022/10/09 05:18:51;;;;;;;;;;;;;;;17.92;60.89;99749.81;4442759;32;33288;-83
2022/10/09 05:21:19;;;;;;;;;;;;;;;18.59;59.07;99740.44;4451865;32;34020;-83
2022/10/09 05:23:47;;;;;;;;;;;;;;;18.95;57.49;99733.94;4448603;32;35160;-84
2022/10/09 05:26:15;;;;;;;;;;;;;;;18.59;58.53;99747.44;4451892;32;34252;-88
2022/10/09 05:28:43;;;;;;;;;;;;;;;18.82;57.96;99737.59;4451368;32;32930;-83
2022/10/09 05:31:13;;;;;;;;;;;;;;;18.79;57.72;99745.53;4438796;32;35085;-84
2022/10/09 05:33:40;;;;;;;;;;;;;;;17.72;61.19;99741.16;4456562;32;35173;-86
2022/10/09 05:36:08;;;;;;;;;;;;;;;18.93;57.36;99734.84;4450053;32;34392;-83
2022/10/09 05:38:35;;;;;;;;;;;;;;;18.46;58.72;99742.31;4451661;32;33518;-83
2022/10/09 05:41:03;;;;;;;;;;;;;;;17.91;60.63;99744.56;4452016;32;33979;-83
2022/10/09 05:43:34;;;;;;;;;;;;;;;18.08;60.08;99754.94;4451945;32;35191;-87
2022/10/09 05:46:05;;;;;;;;;;;;;;;18.34;59.25;99755.59;4451116;32;33606;-82
2022/10/09 05:48:32;;;;;;;;;;;;;;;18.81;57.78;99754.25;4451261;32;33817;-84
2022/10/09 05:51:10;;;;;;;;;;;;;;;18.01;60.16;99753.25;4451854;32;34025;-83
2022/10/09 05:53:38;;;;;;;;;;;;;;;17.86;60.52;99752.47;4451888;32;34263;-83
2022/10/09 05:56:12;;;;;;;;;;;;;;;17.63;61.68;99746.50;4450848;32;34096;-87
2022/10/09 05:58:40;;;;;;;;;;;;;;;18.55;58.76;99756.25;4451837;32;33400;-85
2022/10/09 06:01:07;;;;;;;;;;;;;;;18.50;58.57;99751.03;4451973;32;34130;-83
2022/10/09 06:03:35;;;;;;;;;;;;;;;18.64;58.14;99751.78;4451466;32;34305;-83
2022/10/09 06:06:03;;;;;;;;;;;;;;;19.24;56.50;99753.69;4450692;32;34209;-83
2022/10/09 06:08:31;;;;;;;;;;;;;;;18.57;58.04;99754.47;4451890;32;33260;-82
2022/10/09 06:11:12;;;;;;;;;;;;;;;18.57;58.12;99750.09;4451635;32;34955;-84
2022/10/09 06:13:39;;;;;;;;;;;;;;;17.98;59.74;99762.88;4451829;32;33828;-82
2022/10/09 06:16:07;;;;;;;;;;;;;;;17.34;62.11;99773.72;4450799;32;34229;-88
2022/10/09 06:18:34;;;;;;;;;;;;;;;18.06;59.81;99772.44;4451447;32;33990;-88
2022/10/09 06:21:01;;;;;;;;;;;;;;;17.96;60.07;99771.66;4450423;32;34119;-83
2022/10/09 06:23:30;;;;;;;;;;;;;;;18.34;58.92;99787.09;4442316;32;34518;-84
2022/10/09 06:25:59;;;;;;;;;;;;;;;17.68;60.90;99784.03;4450902;32;34884;-89
2022/10/09 06:28:29;;;;;;;;;;;;;;;18.18;59.67;99793.31;4451727;32;34304;-85
2022/10/09 06:31:00;;;;;;;;;;;;;;;17.93;60.26;99792.66;4451445;32;34682;-89
2022/10/09 06:33:29;;;;;;;;;;;;;;;17.50;61.42;99790.25;4450865;32;34150;-84
2022/10/09 06:36:03;;;;;;;;;;;;;;;19.15;56.66;99806.41;4451393;32;34494;-84
2022/10/09 06:38:36;;;;;;;;;;;;;;;17.84;60.62;99797.94;4451448;32;33095;-84
2022/10/09 06:41:04;;;;;;;;;;;;;;;19.69;55.11;99798.72;4451387;32;34932;-84
2022/10/09 06:43:32;;;;;;;;;;;;;;;18.44;58.32;99809.72;4450560;32;35040;-84
2022/10/09 06:45:59;;;;;;;;;;;;;;;18.79;57.70;99808.56;4449976;32;34199;-89
2022/10/09 06:48:31;;;;;;;;;;;;;;;18.29;59.19;99811.63;4450518;32;33378;-83
2022/10/09 06:51:01;;;;;;;;;;;;;;;17.97;60.14;99804.88;4450423;32;33779;-88
2022/10/09 06:53:28;;;;;;;;;;;;;;;18.36;59.28;99814.16;4451239;32;35097;-86
2022/10/09 06:55:56;;;;;;;;;;;;;;;19.55;55.29;99813.81;4440992;32;34152;-88
2022/10/09 06:58:23;;;;;;;;;;;;;;;18.69;57.67;99820.00;4448907;32;34152;-85
2022/10/09 07:01:00;;;;;;;;;;;;;;;18.76;57.21;99824.34;4449854;32;34195;-89
2022/10/09 07:03:27;;;;;;;;;;;;;;;18.60;57.75;99820.06;4451088;32;35132;-86
2022/10/09 07:06:03;;;;;;;;;;;;;;;18.67;57.66;99816.50;4449632;32;34289;-83
2022/10/09 07:08:31;;;;;;;;;;;;;;;18.20;58.94;99818.69;4449090;32;34149;-87
2022/10/09 07:10:58;;;;;;;;;;;;;;;18.98;56.78;99824.09;4447926;32;34905;-86
2022/10/09 07:13:28;;;;;;;;;;;;;;;19.25;55.78;99829.06;4447236;32;34866;-85
2022/10/09 07:15:55;;;;;;;;;;;;;;;18.79;57.05;99837.47;4450492;32;34337;-84
2022/10/09 07:18:25;;;;;;;;;;;;;;;18.45;58.13;99835.13;4450656;32;34185;-83
2022/10/09 07:20:52;;;;;;;;;;;;;;;19.64;54.82;99835.59;4450686;32;33934;-84
2022/10/09 07:23:20;;;;;;;;;;;;;;;19.28;55.47;99839.56;4450662;32;34394;-83
2022/10/09 07:25:47;;;;;;;;;;;;;;;19.03;56.00;99835.47;4450128;32;34931;-86
2022/10/09 07:28:14;;;;;;;;;;;;;;;19.64;54.54;99837.38;4452048;32;33512;-85
2022/10/09 07:30:42;;;;;;;;;;;;;;;20.14;52.69;99835.75;4449194;32;33773;-87
2022/10/09 07:33:09;;;;;;;;;;;;;;;19.72;53.79;99832.87;4451962;32;33948;-87
2022/10/09 07:35:36;;;;;;;;;;;;;;;20.23;52.44;99833.00;4452577;32;33472;-88
2022/10/09 07:38:03;;;;;;;;;;;;;;;19.45;54.32;99834.94;4451390;32;33742;-87
2022/10/09 07:40:34;;;;;;;;;;;;;;;20.63;51.63;99835.00;4452127;32;34248;-84
2022/10/09 07:43:01;;;;;;;;;;;;;;;20.47;51.58;99838.75;4452392;32;34398;-84
2022/10/09 07:45:28;;;;;;;;;;;;;;;20.93;50.54;99846.75;4452213;32;34039;-84
2022/10/09 07:47:56;;;;;;;;;;;;;;;20.25;52.43;99841.72;4452737;32;34268;-87
2022/10/09 07:50:23;;;;;;;;;;;;;;;19.99;52.35;99841.25;4451927;32;33952;-85
2022/10/09 07:52:50;;;;;;;;;;;;;;;20.24;51.82;99842.63;4452100;32;34096;-85
2022/10/09 07:55:18;;;;;;;;;;;;;;;20.98;50.48;99841.37;4452391;32;34814;-86
2022/10/09 07:57:45;;;;;;;;;;;;;;;20.51;51.50;99837.84;4452599;32;34053;-87
2022/10/09 08:00:13;;;;;;;;;;;;;;;20.11;52.67;99831.41;4451529;32;34087;-87
2022/10/09 08:02:40;;;;;;;;;;;;;;;20.71;51.31;99835.72;4452315;32;34261;-87
2022/10/09 08:05:07;;;;;;;;;;;;;;;20.72;51.06;99837.47;4452416;32;34081;-85
2022/10/09 08:07:35;;;;;;;;;;;;;;;20.89;50.53;99840.66;4451171;32;34317;-86
2022/10/09 08:10:03;;;;;;;;;;;;;;;20.86;50.15;99835.44;4452048;32;34230;-87
2022/10/09 08:12:30;;;;;;;;;;;;;;;20.93;50.01;99837.97;4451771;32;34241;-85
2022/10/09 08:14:57;;;;;;;;;;;;;;;21.23;49.97;99840.00;4444817;32;33087;-86
2022/10/09 08:17:24;;;;;;;;;;;;;;;20.88;50.96;99838.94;4440398;32;34251;-84
2022/10/09 08:19:51;;;;;;;;;;;;;;;19.85;53.21;99837.09;4451435;32;33748;-85
2022/10/09 08:22:18;;;;;;;;;;;;;;;20.73;50.62;99836.56;4451369;32;33732;-85
2022/10/09 08:24:46;;;;;;;;;;;;;;;20.78;50.88;99832.06;4452325;32;33743;-86
2022/10/09 08:27:13;;;;;;;;;;;;;;;20.24;52.21;99837.38;4452602;32;32907;-84
2022/10/09 08:29:40;;;;;;;;;;;;;;;21.11;49.88;99833.22;4452213;32;33663;-84
2022/10/09 08:32:08;;;;;;;;;;;;;;;21.20;49.35;99833.94;4452500;32;33970;-85
2022/10/09 08:34:35;;;;;;;;;;;;;;;20.07;52.47;99844.66;4452810;32;34593;-84
2022/10/09 08:37:02;;;;;;;;;;;;;;;20.60;51.29;99846.44;4451494;32;33899;-83
2022/10/09 08:39:29;;;;;;;;;;;;;;;21.22;50.27;99848.84;4452061;32;33652;-87
2022/10/09 08:41:57;;;;;;;;;;;;;;;20.67;50.48;99849.84;4451933;32;33801;-83
2022/10/09 08:44:25;;;;;;;;;;;;;;;20.47;50.98;99851.94;4451975;32;34117;-84
2022/10/09 08:46:56;;;;;;;;;;;;;;;21.15;49.69;99857.75;4451156;32;33398;-87
2022/10/09 08:49:26;;;;;;;;;;;;;;;20.87;48.91;99849.47;4450706;32;34842;-84
2022/10/09 08:51:54;;;;;;;;;;;;;;;20.96;49.04;99853.72;4451956;32;34063;-85
2022/10/09 08:54:32;;;;;;;;;;;;;;;21.49;48.80;99855.34;4451028;32;35188;-85
2022/10/09 08:57:01;;;;;;;;;;;;;;;21.76;47.07;99851.25;4449051;32;33168;-85
2022/10/09 08:59:29;;;;;;;;;;;;;;;22.62;43.78;99854.53;4456535;32;34912;-86
2022/10/09 09:02:02;;;;;;;;;;;;;;;22.25;45.09;99858.06;4441977;32;34088;-81
2022/10/09 09:04:30;;;;;;;;;;;;;;;22.55;44.77;99863.53;4451555;32;33995;-83
2022/10/09 09:07:04;;;;;;;;;;;;;;;22.80;44.95;99859.31;4438491;32;33172;-84
2022/10/09 09:09:35;;;;;;;;;;;;;;;22.52;44.18;99864.44;4436359;32;34308;-81
2022/10/09 09:12:08;;;;;;;;;;;;;;;22.89;43.98;99865.28;4463403;32;33900;-85
2022/10/09 09:14:55;;;;;;;;;;;;;;;21.37;46.86;99871.44;4446661;32;34897;-82
2022/10/09 09:17:28;;;;;;;;;;;;;;;22.05;44.12;99858.50;4443095;32;32887;-85
2022/10/09 09:20:04;;;;;;;;;;;;;;;22.33;42.39;99861.41;4447069;32;33903;-83
2022/10/09 09:22:31;;;;;;;;;;;;;;;22.39;43.50;99870.06;4448217;32;33907;-82
2022/10/09 09:24:59;;;;;;;;;;;;;;;21.60;44.61;99870.97;4446014;32;33786;-85
2022/10/09 09:27:28;;;;;;;;;;;;;;;21.41;45.25;99877.50;4449051;32;33143;-84
2022/10/09 09:29:57;;;;;;;;;;;;;;;22.00;43.63;99872.72;4447219;32;34233;-85
2022/10/09 09:32:25;;;;;;;;;;;;;;;22.09;43.69;99876.03;4449132;32;34404;-83
2022/10/09 09:34:52;;;;;;;;;;;;;;;22.79;40.94;99876.09;4447617;32;34108;-86
2022/10/09 09:37:20;;;;;;;;;;;;;;;22.53;42.63;99883.81;4442558;32;32971;-84
2022/10/09 09:39:47;;;;;;;;;;;;;;;22.49;42.02;99874.22;4444440;32;34281;-84
2022/10/09 09:42:34;;;;;;;;;;;;;;;22.97;40.85;99882.72;4450651;32;33938;-83
2022/10/09 09:45:03;;;;;;;;;;;;;;;22.35;41.43;99874.59;4449010;32;34415;-84
2022/10/09 09:47:33;;;;;;;;;;;;;;;23.56;40.37;99887.25;4445518;32;33192;-84
2022/10/09 09:50:01;;;;;;;;;;;;;;;23.18;42.17;99885.69;4447878;32;34868;-86
2022/10/09 09:52:29;;;;;;;;;;;;;;;23.36;42.27;99881.66;4449804;32;34098;-85
2022/10/09 09:54:57;;;;;;;;;;;;;;;22.59;41.36;99878.37;4451243;32;34810;-84
2022/10/09 09:57:29;;;;;;;;;;;;;;;23.54;39.53;99881.16;4450748;32;33186;-84
2022/10/09 10:00:05;;;;;;;;;;;;;;;23.12;41.21;99884.09;4451444;32;33536;-84
2022/10/09 10:02:35;;;;;;;;;;;;;;;22.68;41.80;99886.06;4449989;32;34019;-85
2022/10/09 10:05:21;;;;;;;;;;;;;;;23.14;40.80;99890.19;4449419;32;33965;-83
2022/10/09 10:07:50;;;;;;;;;;;;;;;22.46;42.28;99888.38;4449296;32;32995;-83
2022/10/09 10:10:22;;;;;;;;;;;;;;;22.11;43.04;99891.81;4449839;32;33871;-85
2022/10/09 10:12:52;;;;;;;;;;;;;;;21.96;42.64;99889.53;4449977;32;33832;-86
2022/10/09 10:15:19;;;;;;;;;;;;;;;22.80;42.43;99891.03;4451256;32;33746;-85
2022/10/09 10:17:47;;;;;;;;;;;;;;;23.53;39.56;99895.31;4450933;32;33939;-85
2022/10/09 10:20:15;;;;;;;;;;;;;;;23.39;39.79;99892.19;4451639;32;34140;-87
2022/10/09 10:22:49;;;;;;;;;;;;;;;23.09;40.67;99886.81;4451410;32;33756;-82
2022/10/09 10:25:17;;;;;;;;;;;;;;;23.75;39.62;99888.50;4450152;32;32353;-82
2022/10/09 10:27:45;;;;;;;;;;;;;;;24.40;39.11;99879.47;4449717;32;33456;-83
2022/10/09 10:30:13;;;;;;;;;;;;;;;24.13;38.98;99880.28;4451285;32;34177;-84
2022/10/09 10:32:55;;;;;;;;;;;;;;;23.90;38.90;99886.28;4450298;32;34913;-82
2022/10/09 10:35:23;;;;;;;;;;;;;;;24.48;37.95;99887.16;4450359;32;35031;-85
2022/10/09 10:37:55;;;;;;;;;;;;;;;24.31;38.48;99884.13;4449791;32;33411;-85
2022/10/09 10:40:31;;;;;;;;;;;;;;;23.62;38.87;99891.50;4450856;32;33900;-82
2022/10/09 10:43:08;;;;;;;;;;;;;;;24.04;37.82;99897.34;4451074;32;34935;-83
2022/10/09 10:45:43;;;;;;;;;;;;;;;24.33;36.53;99890.28;4450809;32;34079;-82
2022/10/09 10:48:12;;;;;;;;;;;;;;;23.73;38.17;99892.97;4450938;32;33484;-85
2022/10/09 10:50:42;;;;;;;;;;;;;;;23.48;37.79;99894.53;4449023;32;34879;-84
2022/10/09 10:53:16;;;;;;;;;;;;;;;23.58;38.08;99890.72;4448989;32;34387;-85
2022/10/09 10:55:59;;;;;;;;;;;;;;;23.33;39.96;99893.19;4449311;32;34036;-84
2022/10/09 10:58:31;;;;;;;;;;;;;;;23.90;39.08;99881.84;4449601;32;33391;-83
2022/10/09 11:01:14;;;;;;;;;;;;;;;24.47;37.29;99888.06;4450652;32;34952;-83
2022/10/09 11:03:44;;;;;;;;;;;;;;;23.91;39.05;99888.03;4451018;32;34369;-84
2022/10/09 11:06:17;;;;;;;;;;;;;;;24.25;37.00;99882.56;4451732;32;33543;-85
2022/10/09 11:08:53;;;;;;;;;;;;;;;24.25;35.15;99874.62;4451393;32;33374;-86
2022/10/09 11:11:20;;;;;;;;;;;;;;;24.25;36.24;99869.31;4451326;32;34876;-84
2022/10/09 11:13:51;;;;;;;;;;;;;;;24.64;35.69;99869.81;4453418;32;34379;-84
2022/10/09 11:16:50;;;;;;;;;;;;;;;24.48;36.36;99871.25;4451127;32;34784;-83
2022/10/09 11:19:26;;;;;;;;;;;;;;;24.14;37.15;99868.78;4418217;32;33090;-83
2022/10/09 11:22:02;;;;;;;;;;;;;;;23.81;38.43;99881.28;4451692;32;33786;-84
2022/10/09 11:24:29;;;;;;;;;;;;;;;24.28;37.91;99874.50;4452757;32;34265;-87
2022/10/09 11:27:00;;;;;;;;;;;;;;;24.51;34.80;99873.81;4452888;32;34387;-83
2022/10/09 11:29:38;;;;;;;;;;;;;;;24.63;35.35;99868.09;4451350;32;34209;-82
2022/10/09 11:32:25;;;;;;;;;;;;;;;23.92;35.68;99863.28;4451437;32;34727;-85
2022/10/09 11:34:57;;;;;;;;;;;;;;;23.68;37.64;99860.47;4441989;32;34464;-82
2022/10/09 11:37:26;;;;;;;;;;;;;;;23.88;36.55;99866.94;4451619;32;34935;-82
2022/10/09 11:39:53;;;;;;;;;;;;;;;23.60;37.43;99872.16;4445926;32;34117;-84
2022/10/09 11:42:21;;;;;;;;;;;;;;;24.72;35.32;99858.94;4452799;32;33743;-82
2022/10/09 11:44:52;;;;;;;;;;;;;;;24.82;36.37;99863.03;4467015;32;34238;-87
2022/10/09 11:47:38;;;;;;;;;;;;;;;24.30;38.07;99863.87;4467099;32;34272;-82
2022/10/09 11:50:11;;;;;;;;;;;;;;;23.42;36.68;99863.00;4468440;32;33967;-85
2022/10/09 11:52:42;;;;;;;;;;;;;;;24.68;35.20;99855.53;4454327;32;34942;-83
2022/10/09 11:55:28;;;;;;;;;;;;;;;24.71;35.66;99855.44;4451572;32;34325;-83
2022/10/09 11:58:08;;;;;;;;;;;;;;;24.27;35.01;99855.09;4448989;32;33687;-81
2022/10/09 12:00:35;;;;;;;;;;;;;;;24.63;34.04;99852.19;4451812;32;34114;-84
2022/10/09 12:03:03;;;;;;;;;;;;;;;24.84;35.08;99847.03;4452345;32;33558;-84
2022/10/09 12:05:31;;;;;;;;;;;;;;;24.55;34.19;99842.72;4452431;32;34187;-85
2022/10/09 12:08:08;;;;;;;;;;;;;;;24.83;33.90;99847.97;4451216;32;34612;-86
2022/10/09 12:10:37;;;;;;;;;;;;;;;24.80;36.17;99848.06;4452561;32;33259;-88
2022/10/09 12:13:05;;;;;;;;;;;;;;;24.72;35.78;99841.25;4452023;32;34809;-88
2022/10/09 12:15:47;;;;;;;;;;;;;;;24.38;35.33;99845.94;4452310;32;34406;-91
2022/10/09 12:18:25;;;;;;;;;;;;;;;24.79;35.16;99843.69;4450218;32;33964;-87
2022/10/09 12:20:52;;;;;;;;;;;;;;;24.54;34.79;99847.16;4451073;32;33555;-86
2022/10/09 12:23:24;;;;;;;;;;;;;;;24.58;36.01;99843.50;4450427;32;35077;-83
2022/10/09 12:25:54;;;;;;;;;;;;;;;25.53;32.32;99834.81;4452247;32;35856;-82
2022/10/09 12:28:21;;;;;;;;;;;;;;;25.33;32.86;99842.66;4446803;32;34176;-87
2022/10/09 12:30:48;;;;;;;;;;;;;;;24.93;34.52;99846.75;4451341;32;33299;-86
2022/10/09 12:33:26;;;;;;;;;;;;;;;25.43;33.87;99841.41;4452561;32;34116;-83
2022/10/09 12:36:13;;;;;;;;;;;;;;;25.26;34.35;99842.03;4450303;32;34084;-88
2022/10/09 12:38:41;;;;;;;;;;;;;;;24.85;34.11;99839.06;4451734;32;33850;-85
2022/10/09 12:41:20;;;;;;;;;;;;;;;25.15;33.29;99834.44;4451818;32;33471;-83
2022/10/09 12:43:48;;;;;;;;;;;;;;;25.44;34.18;99840.47;4452506;32;35078;-83
2022/10/09 12:46:29;;;;;;;;;;;;;;;25.50;32.93;99834.09;4451009;32;34465;-88
2022/10/09 12:48:57;;;;;;;;;;;;;;;25.96;32.59;99827.88;4452524;32;34726;-85
2022/10/09 12:51:25;;;;;;;;;;;;;;;25.53;32.14;99828.63;4452304;32;33552;-86
2022/10/09 12:53:53;;;;;;;;;;;;;;;25.47;33.92;99835.06;4452382;32;34863;-87
2022/10/09 12:56:32;;;;;;;;;;;;;;;26.42;32.30;99832.19;4443326;32;34111;-88
2022/10/09 12:58:59;;;;;;;;;;;;;;;26.48;30.91;99823.13;4437012;32;34875;-84
2022/10/09 13:01:26;;;;;;;;;;;;;;;26.01;33.32;99814.41;4437223;32;34037;-87